Time;durP1;ratioP1;P1;durP2;ratioP2;P2;SDS_P1;SDS_P2;PMS_P1;PMS_P2;Temp;Humidity;BMP_temperature;BMP_pressure;BME280_temperature;BME280_humidity;BME280_pressure;Samples;Min_cycle;Max_cycle;Signal;HPM_P1;HPM_P2
2022/01/06 00:01:11;;;;;;;23.30;4.93;;;3.60;99.90;;;;;;5095696;28;20032;-65
2022/01/06 00:03:36;;;;;;;36.17;5.88;;;3.50;99.90;;;;;;5095597;28;20527;-65
2022/01/06 00:06:06;;;;;;;23.63;4.65;;;3.50;99.90;;;;;;5096909;28;20116;-65
2022/01/06 00:08:34;;;;;;;22.10;4.65;;;3.40;99.90;;;;;;5095810;28;20020;-65
2022/01/06 00:11:00;;;;;;;28.17;4.90;;;3.40;99.90;;;;;;5078627;28;20027;-65
2022/01/06 00:13:33;;;;;;;34.38;5.03;;;3.40;99.90;;;;;;5095116;28;20447;-65
2022/01/06 00:16:03;;;;;;;25.30;4.45;;;3.40;99.90;;;;;;5095792;28;20032;-65
2022/01/06 00:24:00;;;;;;;30.23;4.97;;;3.30;99.90;;;;;;5095950;28;20078;-66
2022/01/06 00:26:25;;;;;;;32.60;4.88;;;3.20;99.90;;;;;;5096564;28;20423;-66
2022/01/06 00:28:51;;;;;;;31.35;5.18;;;3.20;99.90;;;;;;5096027;28;20032;-65
2022/01/06 00:31:16;;;;;;;32.50;4.93;;;3.20;99.90;;;;;;5095364;28;20444;-65
2022/01/06 00:33:42;;;;;;;32.78;4.70;;;3.20;99.90;;;;;;5096470;28;20026;-65
2022/01/06 00:36:07;;;;;;;31.00;5.00;;;3.20;99.90;;;;;;5096438;28;20028;-65
2022/01/06 00:38:33;;;;;;;29.63;4.93;;;3.20;99.90;;;;;;5096385;28;20028;-65
2022/01/06 00:40:59;;;;;;;30.42;5.15;;;3.10;99.90;;;;;;5094545;28;20063;-65
2022/01/06 00:43:24;;;;;;;28.45;5.13;;;3.10;99.90;;;;;;5094457;28;20016;-65
2022/01/06 00:45:50;;;;;;;30.80;5.28;;;3.10;99.90;;;;;;5095621;28;20044;-65
2022/01/06 00:48:15;;;;;;;36.63;5.07;;;3.10;99.90;;;;;;5095633;28;20030;-65
2022/01/06 00:50:42;;;;;;;34.28;4.88;;;3.10;99.90;;;;;;5096177;28;20062;-64
2022/01/06 00:53:09;;;;;;;29.00;4.82;;;3.10;99.90;;;;;;5095847;28;20024;-66
2022/01/06 00:55:36;;;;;;;37.22;4.70;;;3.10;99.90;;;;;;5095780;28;20028;-64
2022/01/06 00:58:04;;;;;;;29.27;4.35;;;3.00;99.90;;;;;;5094547;28;20080;-65
2022/01/06 01:00:38;;;;;;;27.15;4.00;;;3.00;99.90;;;;;;5094797;28;20032;-65
2022/01/06 01:03:06;;;;;;;27.23;4.28;;;3.00;99.90;;;;;;5095834;28;20028;-65
2022/01/06 01:05:32;;;;;;;24.10;4.53;;;3.10;99.90;;;;;;5093942;28;20470;-66
2022/01/06 01:07:58;;;;;;;32.90;4.78;;;3.20;99.90;;;;;;5094009;28;20024;-66
2022/01/06 01:10:23;;;;;;;38.20;5.05;;;3.20;99.90;;;;;;5094308;28;20028;-64
2022/01/06 01:12:49;;;;;;;27.50;4.30;;;3.10;99.90;;;;;;5095684;28;20032;-65
2022/01/06 01:15:19;;;;;;;31.52;5.60;;;3.10;99.90;;;;;;5095656;28;20097;-64
2022/01/06 01:17:48;;;;;;;25.73;4.45;;;3.10;99.90;;;;;;5077517;28;20035;-65
2022/01/06 01:20:15;;;;;;;35.17;5.45;;;3.20;99.90;;;;;;5095011;28;20043;-65
2022/01/06 01:22:41;;;;;;;37.78;4.97;;;3.10;99.90;;;;;;5095524;28;20020;-65
2022/01/06 01:25:07;;;;;;;25.50;5.00;;;3.10;99.90;;;;;;5095179;28;20030;-65
2022/01/06 01:27:38;;;;;;;24.83;4.50;;;3.10;99.90;;;;;;5094028;28;20024;-66
2022/01/06 01:30:09;;;;;;;36.85;5.90;;;3.10;99.90;;;;;;5094554;28;20016;-66
2022/01/06 01:32:37;;;;;;;29.00;5.00;;;3.20;99.90;;;;;;5094263;28;20095;-67
2022/01/06 01:35:07;;;;;;;29.20;5.43;;;3.20;99.90;;;;;;5095299;28;20469;-65
2022/01/06 01:37:32;;;;;;;34.90;4.63;;;3.20;99.90;;;;;;5094675;28;20480;-66
2022/01/06 01:39:58;;;;;;;29.70;5.35;;;3.20;99.90;;;;;;5095221;28;20016;-65
2022/01/06 01:42:25;;;;;;;29.35;4.80;;;3.20;99.90;;;;;;5076645;28;20114;-65
2022/01/06 01:44:52;;;;;;;25.02;5.45;;;3.10;99.90;;;;;;5093032;28;20044;-66
2022/01/06 01:47:29;;;;;;;37.05;5.35;;;3.00;99.90;;;;;;5093297;28;20017;-65
2022/01/06 01:50:10;;;;;;;27.40;4.78;;;3.10;99.90;;;;;;5093701;28;20077;-65
2022/01/06 01:52:37;;;;;;;22.75;4.38;;;3.00;99.90;;;;;;5094730;28;20028;-65
2022/01/06 01:55:03;;;;;;;29.38;4.50;;;3.00;99.90;;;;;;5076413;28;20465;-66
2022/01/06 01:57:29;;;;;;;29.33;4.32;;;3.00;99.90;;;;;;5093750;28;20031;-66
2022/01/06 01:59:54;;;;;;;41.03;6.38;;;3.00;99.90;;;;;;5093099;28;20020;-65
2022/01/06 02:02:20;;;;;;;31.50;4.38;;;3.00;99.90;;;;;;5095318;28;20028;-65
2022/01/06 02:04:47;;;;;;;29.45;4.63;;;2.90;99.90;;;;;;5094802;28;20043;-66
2022/01/06 02:07:13;;;;;;;33.15;6.10;;;2.90;99.90;;;;;;5094713;28;20076;-66
2022/01/06 02:09:38;;;;;;;41.58;5.50;;;2.80;99.90;;;;;;5094172;28;20028;-64
2022/01/06 02:12:04;;;;;;;29.13;5.45;;;2.80;99.90;;;;;;5094383;28;20111;-65
2022/01/06 02:14:30;;;;;;;27.95;4.78;;;2.70;99.90;;;;;;5094325;28;20016;-65
2022/01/06 02:16:55;;;;;;;31.17;5.25;;;2.70;99.90;;;;;;5093512;28;20026;-65
2022/01/06 02:19:21;;;;;;;35.88;5.30;;;2.70;99.90;;;;;;5076233;28;20389;-65
2022/01/06 02:21:47;;;;;;;38.50;5.47;;;2.60;99.90;;;;;;5093520;28;20116;-65
2022/01/06 02:24:12;;;;;;;31.77;5.05;;;2.60;99.90;;;;;;5075801;28;20028;-65
2022/01/06 02:26:38;;;;;;;34.13;4.95;;;2.60;99.90;;;;;;5075726;28;20475;-65
2022/01/06 02:29:03;;;;;;;25.55;5.43;;;2.60;99.90;;;;;;5092974;28;20028;-65
2022/01/06 02:31:40;;;;;;;28.25;4.60;;;2.60;99.90;;;;;;5093208;28;20039;-65
2022/01/06 02:34:05;;;;;;;28.08;5.53;;;2.50;99.90;;;;;;5094096;28;20476;-65
2022/01/06 02:36:31;;;;;;;29.08;4.93;;;2.50;99.90;;;;;;5075690;28;20150;-65
2022/01/06 02:38:56;;;;;;;25.02;4.60;;;2.50;99.90;;;;;;5092571;28;20103;-65
2022/01/06 02:41:22;;;;;;;27.17;4.90;;;2.50;99.90;;;;;;5092637;28;20028;-65
2022/01/06 02:43:50;;;;;;;37.78;6.00;;;2.50;99.90;;;;;;5093942;28;20089;-65
2022/01/06 02:46:15;;;;;;;26.13;4.30;;;2.40;99.90;;;;;;5092174;28;20566;-65
2022/01/06 02:48:40;;;;;;;28.17;4.85;;;2.40;99.90;;;;;;5094123;28;20027;-65
2022/01/06 02:51:06;;;;;;;34.58;6.57;;;2.40;99.90;;;;;;5093582;28;20073;-65
2022/01/06 02:53:32;;;;;;;30.33;4.72;;;2.30;99.90;;;;;;5092676;28;20020;-66
2022/01/06 02:55:57;;;;;;;30.38;4.78;;;2.20;99.90;;;;;;5092375;28;20077;-65
2022/01/06 02:58:23;;;;;;;29.02;5.63;;;2.30;99.90;;;;;;5094053;28;20024;-65
2022/01/06 03:00:49;;;;;;;28.17;5.07;;;2.20;99.90;;;;;;5092885;28;20027;-65
2022/01/06 03:03:15;;;;;;;33.65;4.63;;;2.20;99.90;;;;;;5092562;28;20020;-65
2022/01/06 03:05:41;;;;;;;38.75;6.05;;;2.30;99.90;;;;;;5092129;28;20024;-65
2022/01/06 03:08:07;;;;;;;28.42;5.22;;;2.40;99.90;;;;;;5092196;28;20017;-65
2022/01/06 03:10:36;;;;;;;38.45;4.68;;;2.40;99.90;;;;;;5092145;28;20064;-65
2022/01/06 03:13:03;;;;;;;30.67;4.60;;;2.40;99.90;;;;;;5092819;28;20024;-65
2022/01/06 03:15:28;;;;;;;23.58;4.15;;;2.40;99.90;;;;;;5093689;28;20031;-65
2022/01/06 03:17:56;;;;;;;27.80;4.43;;;2.40;99.90;;;;;;5092147;28;20024;-66
2022/01/06 03:20:23;;;;;;;39.55;5.57;;;2.40;99.90;;;;;;5075995;28;20032;-65
2022/01/06 03:22:50;;;;;;;21.45;4.03;;;2.40;99.90;;;;;;5093883;28;20060;-65
2022/01/06 03:25:16;;;;;;;23.73;4.55;;;2.40;99.90;;;;;;5075321;28;20031;-65
2022/01/06 03:27:43;;;;;;;29.92;4.53;;;2.40;99.90;;;;;;5092373;28;20027;-66
2022/01/06 03:30:11;;;;;;;33.97;5.18;;;2.50;99.90;;;;;;5093491;28;20024;-66
2022/01/06 03:32:37;;;;;;;32.45;4.35;;;2.50;99.90;;;;;;5092339;28;20033;-65
2022/01/06 03:35:04;;;;;;;26.20;4.75;;;2.50;99.90;;;;;;5075667;28;20030;-65
2022/01/06 03:37:30;;;;;;;24.25;3.83;;;2.50;99.90;;;;;;5093456;28;20073;-65
2022/01/06 03:39:55;;;;;;;27.80;4.80;;;2.60;99.90;;;;;;5093445;28;20028;-65
2022/01/06 03:42:21;;;;;;;24.00;4.18;;;2.60;99.90;;;;;;5074989;28;20094;-65
2022/01/06 03:44:46;;;;;;;23.70;4.70;;;2.60;99.90;;;;;;5092233;28;20055;-65
2022/01/06 03:47:12;;;;;;;28.80;4.50;;;2.50;99.90;;;;;;5091748;28;20066;-65
2022/01/06 03:49:38;;;;;;;30.83;5.28;;;2.50;99.90;;;;;;5093343;28;20429;-65
2022/01/06 03:52:03;;;;;;;30.75;5.78;;;2.40;99.90;;;;;;5074976;28;20478;-65
2022/01/06 03:54:29;;;;;;;30.15;4.57;;;2.30;99.90;;;;;;5095823;28;20461;-65
2022/01/06 03:56:56;;;;;;;31.30;5.07;;;2.30;99.90;;;;;;5095749;28;20385;-65
2022/01/06 03:59:21;;;;;;;29.63;5.75;;;2.10;99.90;;;;;;5078641;28;20031;-65
2022/01/06 04:01:47;;;;;;;27.55;4.47;;;2.10;99.90;;;;;;5078442;28;20031;-65
2022/01/06 04:04:13;;;;;;;28.77;4.82;;;2.10;99.90;;;;;;5096817;28;20473;-64
2022/01/06 04:06:40;;;;;;;29.58;6.10;;;2.00;99.90;;;;;;5095816;28;20024;-65
2022/01/06 04:09:06;;;;;;;29.00;4.80;;;1.90;99.90;;;;;;5095432;28;20459;-65
2022/01/06 04:11:32;;;;;;;29.23;5.72;;;1.90;99.90;;;;;;5095461;28;20117;-65
2022/01/06 04:13:57;;;;;;;30.98;4.50;;;1.80;99.90;;;;;;5078251;28;20063;-65
2022/01/06 04:16:25;;;;;;;27.83;5.25;;;1.70;99.90;;;;;;5095146;28;20031;-65
2022/01/06 04:18:50;;;;;;;29.85;4.95;;;1.70;99.90;;;;;;5096816;28;20020;-63
2022/01/06 04:21:16;;;;;;;37.78;7.13;;;1.70;99.90;;;;;;5095296;28;20526;-63
2022/01/06 04:23:42;;;;;;;33.53;4.93;;;1.70;99.90;;;;;;5094893;28;20389;-63
2022/01/06 04:26:07;;;;;;;44.10;6.20;;;1.70;99.90;;;;;;5095193;28;20024;-63
2022/01/06 04:28:33;;;;;;;30.23;6.22;;;1.70;99.90;;;;;;5096612;28;20031;-65
2022/01/06 04:30:58;;;;;;;30.88;5.80;;;1.80;99.90;;;;;;5077967;28;20119;-64
2022/01/06 04:33:24;;;;;;;31.05;5.88;;;1.80;99.90;;;;;;5096599;28;20036;-68
2022/01/06 04:35:49;;;;;;;39.17;6.25;;;1.70;99.90;;;;;;5094898;28;20035;-71
2022/01/06 04:38:15;;;;;;;25.17;5.30;;;1.70;99.90;;;;;;5077866;28;20028;-64
2022/01/06 04:40:41;;;;;;;35.30;6.57;;;1.70;99.90;;;;;;5096112;28;20020;-65
2022/01/06 04:43:07;;;;;;;34.67;6.30;;;1.70;99.90;;;;;;5077758;28;20024;-65
2022/01/06 04:45:33;;;;;;;37.03;6.78;;;1.60;99.90;;;;;;5096133;28;20043;-64
2022/01/06 04:47:59;;;;;;;29.45;5.28;;;1.60;99.90;;;;;;5077574;28;20028;-65
2022/01/06 04:50:24;;;;;;;30.63;6.32;;;1.50;99.90;;;;;;5094367;28;20027;-64
2022/01/06 04:52:50;;;;;;;29.50;6.03;;;1.50;99.90;;;;;;5094689;28;20117;-65
2022/01/06 04:55:15;;;;;;;36.60;5.63;;;1.40;99.90;;;;;;5095835;28;20032;-65
2022/01/06 04:57:41;;;;;;;30.63;6.30;;;1.40;99.90;;;;;;5095028;28;20059;-65
2022/01/06 05:00:07;;;;;;;37.00;7.18;;;1.50;99.90;;;;;;5095999;28;20028;-64
2022/01/06 05:02:33;;;;;;;34.85;5.75;;;1.30;99.90;;;;;;5094777;28;20039;-65
2022/01/06 05:04:59;;;;;;;40.75;6.13;;;1.30;99.90;;;;;;5095824;28;20457;-65
2022/01/06 05:07:24;;;;;;;29.00;6.25;;;1.30;99.90;;;;;;5094455;28;20028;-65
2022/01/06 05:09:50;;;;;;;28.73;5.80;;;1.30;99.90;;;;;;5095573;28;20118;-65
2022/01/06 05:12:16;;;;;;;47.75;7.93;;;1.30;99.90;;;;;;5094562;28;20595;-64
2022/01/06 05:14:42;;;;;;;25.05;5.15;;;1.20;99.90;;;;;;5093901;28;20020;-64
2022/01/06 05:17:08;;;;;;;29.05;5.38;;;1.10;99.90;;;;;;5095598;28;20029;-64
2022/01/06 05:19:34;;;;;;;44.97;6.05;;;1.00;99.90;;;;;;5095055;28;20020;-64
2022/01/06 05:22:00;;;;;;;30.17;6.40;;;1.00;99.90;;;;;;5093847;28;20042;-64
2022/01/06 05:24:25;;;;;;;33.20;5.68;;;1.10;99.90;;;;;;5095524;28;20020;-64
2022/01/06 05:26:54;;;;;;;33.10;5.82;;;1.00;99.90;;;;;;5076686;28;20028;-64
2022/01/06 05:29:20;;;;;;;32.45;6.07;;;1.00;99.90;;;;;;5094001;28;20024;-64
2022/01/06 05:31:46;;;;;;;50.92;6.30;;;0.90;99.90;;;;;;5093927;28;20074;-64
2022/01/06 05:34:11;;;;;;;28.08;5.65;;;0.80;99.90;;;;;;5076610;28;20077;-64
2022/01/06 05:36:37;;;;;;;29.52;5.80;;;0.80;99.90;;;;;;5095313;28;20055;-65
2022/01/06 05:39:03;;;;;;;30.90;5.43;;;0.70;99.90;;;;;;5094961;28;20039;-65
2022/01/06 05:41:29;;;;;;;22.38;5.28;;;0.60;99.90;;;;;;5094887;28;20485;-64
2022/01/06 05:43:54;;;;;;;23.17;4.70;;;0.50;99.90;;;;;;5093738;28;20077;-64
2022/01/06 05:46:20;;;;;;;24.70;4.90;;;0.40;99.90;;;;;;5076192;28;20097;-64
2022/01/06 05:48:46;;;;;;;24.50;4.60;;;0.30;99.90;;;;;;5093939;28;20107;-64
2022/01/06 05:51:13;;;;;;;19.83;5.15;;;0.20;99.90;;;;;;5093305;28;20016;-64
2022/01/06 05:53:38;;;;;;;20.40;4.90;;;0.00;99.90;;;;;;5094994;28;20032;-64
2022/01/06 05:56:04;;;;;;;19.05;4.15;;;0.00;99.90;;;;;;5094946;28;20384;-65
2022/01/06 05:58:30;;;;;;;25.58;5.28;;;-0.10;99.90;;;;;;5077124;28;20407;-64
2022/01/06 06:00:55;;;;;;;30.13;6.88;;;-0.20;99.90;;;;;;5093695;28;20032;-64
2022/01/06 06:03:22;;;;;;;36.95;7.25;;;-0.20;99.90;;;;;;5092979;28;20028;-64
2022/01/06 06:05:48;;;;;;;16.17;5.22;;;-0.20;99.90;;;;;;5093272;28;20035;-64
2022/01/06 06:08:13;;;;;;;30.63;5.97;;;-0.30;99.90;;;;;;5076202;28;20020;-64
2022/01/06 06:10:39;;;;;;;34.15;6.60;;;-0.20;99.90;;;;;;5092891;28;20115;-64
2022/01/06 06:13:05;;;;;;;31.73;6.80;;;-0.10;99.90;;;;;;5093449;28;20027;-65
2022/01/06 06:15:37;;;;;;;36.30;7.20;;;0.10;99.90;;;;;;5092753;28;20020;-65
2022/01/06 06:18:05;;;;;;;44.63;7.38;;;0.20;99.90;;;;;;5094572;28;20368;-65
2022/01/06 06:20:32;;;;;;;28.50;6.50;;;0.10;99.90;;;;;;5093086;28;20381;-65
2022/01/06 06:22:58;;;;;;;31.05;6.63;;;0.00;99.90;;;;;;5093348;28;20063;-65
2022/01/06 06:25:24;;;;;;;43.58;8.45;;;0.00;99.90;;;;;;5094299;28;20020;-64
2022/01/06 06:27:50;;;;;;;44.75;7.75;;;0.00;99.90;;;;;;5093865;28;20016;-64
2022/01/06 06:30:16;;;;;;;29.35;6.35;;;0.10;99.90;;;;;;5092578;28;20039;-64
2022/01/06 06:32:41;;;;;;;48.15;9.90;;;0.10;99.90;;;;;;5075756;28;20020;-64
2022/01/06 06:35:07;;;;;;;37.47;9.13;;;0.20;99.90;;;;;;5094311;28;20024;-65
2022/01/06 06:37:33;;;;;;;38.45;9.00;;;0.40;99.90;;;;;;5092473;28;20052;-65
2022/01/06 06:39:59;;;;;;;36.80;9.13;;;0.40;99.90;;;;;;5093986;28;20024;-64
2022/01/06 06:42:25;;;;;;;46.33;10.32;;;0.50;99.90;;;;;;5092787;28;20461;-64
2022/01/06 06:44:50;;;;;;;38.40;9.10;;;0.60;99.90;;;;;;5092747;28;20119;-65
2022/01/06 06:47:16;;;;;;;41.30;10.05;;;0.60;99.90;;;;;;5076275;28;20115;-64
2022/01/06 06:49:41;;;;;;;50.45;8.90;;;0.60;99.90;;;;;;5092608;28;20400;-64
2022/01/06 06:52:07;;;;;;;44.85;10.15;;;0.50;99.90;;;;;;5092856;28;20074;-64
2022/01/06 06:54:33;;;;;;;43.22;9.55;;;0.50;99.90;;;;;;5092615;28;20077;-64
2022/01/06 06:56:58;;;;;;;47.03;8.73;;;0.50;99.90;;;;;;5075782;28;20025;-65
2022/01/06 06:59:24;;;;;;;43.53;8.30;;;0.50;99.90;;;;;;5093992;28;20377;-65
2022/01/06 07:01:50;;;;;;;35.92;7.45;;;0.50;99.90;;;;;;5075467;28;20119;-66
2022/01/06 07:04:15;;;;;;;32.08;7.05;;;0.40;99.90;;;;;;5092383;28;20488;-66
2022/01/06 07:06:41;;;;;;;33.60;6.80;;;0.30;99.90;;;;;;5093598;28;20024;-66
2022/01/06 07:09:06;;;;;;;48.10;8.13;;;0.10;99.90;;;;;;5093959;28;20073;-65
2022/01/06 07:11:32;;;;;;;32.40;7.35;;;0.10;99.90;;;;;;5092707;28;20020;-66
2022/01/06 07:13:58;;;;;;;31.95;6.93;;;0.10;99.90;;;;;;5093635;28;20020;-65
2022/01/06 07:16:23;;;;;;;21.52;5.88;;;0.00;99.90;;;;;;5092041;28;20024;-65
2022/01/06 07:18:49;;;;;;;32.95;6.97;;;-0.10;99.90;;;;;;5093835;28;20056;-65
2022/01/06 07:21:14;;;;;;;35.50;8.60;;;-0.20;99.90;;;;;;5076004;28;20435;-65
2022/01/06 07:23:40;;;;;;;36.30;7.57;;;-0.20;99.90;;;;;;5092753;28;20441;-66
2022/01/06 07:26:05;;;;;;;24.73;6.78;;;-0.20;99.90;;;;;;5075952;28;20059;-65
2022/01/06 07:28:31;;;;;;;21.45;6.75;;;-0.20;99.90;;;;;;5077174;28;20421;-65
2022/01/06 07:30:56;;;;;;;22.98;6.72;;;-0.20;99.90;;;;;;5097321;28;20381;-65
2022/01/06 07:33:22;;;;;;;34.80;8.02;;;-0.30;99.90;;;;;;5097389;28;20020;-65
2022/01/06 07:35:48;;;;;;;26.48;6.93;;;-0.20;99.90;;;;;;5097640;28;20035;-65
2022/01/06 07:38:13;;;;;;;34.13;7.72;;;-0.20;99.90;;;;;;5079093;28;20119;-66
2022/01/06 07:40:39;;;;;;;44.47;8.38;;;-0.20;99.90;;;;;;5108346;28;20062;-66
2022/01/06 07:43:05;;;;;;;37.33;8.73;;;-0.20;99.90;;;;;;5096899;28;20504;-66
2022/01/06 07:45:31;;;;;;;58.65;13.23;;;0.00;99.90;;;;;;5098589;28;20094;-66
2022/01/06 07:47:59;;;;;;;161.23;59.40;;;0.10;99.90;;;;;;5099693;28;20028;-66
2022/01/06 07:50:30;;;;;;;84.15;26.90;;;0.10;99.90;;;;;;5099004;28;20050;-66
2022/01/06 07:52:56;;;;;;;45.85;10.63;;;0.20;99.90;;;;;;5096329;28;20020;-66
2022/01/06 07:55:22;;;;;;;73.32;22.35;;;0.30;99.90;;;;;;5092275;28;20024;-66
2022/01/06 07:57:47;;;;;;;142.07;54.97;;;0.30;99.90;;;;;;5095144;28;20035;-66
2022/01/06 08:00:14;;;;;;;106.30;41.65;;;0.30;99.90;;;;;;5114960;28;20027;-66
2022/01/06 08:02:39;;;;;;;87.30;23.60;;;0.40;99.90;;;;;;5099805;28;20043;-66
2022/01/06 08:05:09;;;;;;;76.13;19.35;;;0.40;99.90;;;;;;5095982;28;20380;-66
2022/01/06 08:07:35;;;;;;;98.25;40.03;;;0.40;99.90;;;;;;5097765;28;20063;-66
2022/01/06 08:10:00;;;;;;;63.60;26.88;;;0.50;99.90;;;;;;5095438;28;20055;-66
2022/01/06 08:12:26;;;;;;;59.92;24.25;;;0.40;99.90;;;;;;5074976;28;20496;-66
2022/01/06 08:14:51;;;;;;;59.13;17.58;;;0.40;99.90;;;;;;5074581;28;20017;-66
2022/01/06 08:17:17;;;;;;;48.33;13.27;;;0.40;99.90;;;;;;5090304;28;20071;-66
2022/01/06 08:19:43;;;;;;;49.85;12.20;;;0.40;99.90;;;;;;5078268;28;20044;-66
2022/01/06 08:22:09;;;;;;;35.97;12.07;;;0.40;99.90;;;;;;5078512;28;20024;-67
2022/01/06 08:24:34;;;;;;;51.63;15.07;;;0.40;99.90;;;;;;5095189;28;20449;-66
2022/01/06 08:27:01;;;;;;;57.58;13.55;;;0.90;99.90;;;;;;5075810;28;20044;-66
2022/01/06 08:29:27;;;;;;;46.58;12.52;;;1.50;99.90;;;;;;5076287;28;20104;-66
2022/01/06 08:31:52;;;;;;;44.17;10.73;;;1.80;99.90;;;;;;5095761;28;20111;-66
2022/01/06 08:34:17;;;;;;;40.17;11.57;;;2.20;99.90;;;;;;5106629;28;20111;-67
2022/01/06 08:36:43;;;;;;;41.13;13.27;;;2.30;99.90;;;;;;5098750;28;20028;-67
2022/01/06 08:39:08;;;;;;;40.75;9.32;;;3.00;99.90;;;;;;5095200;28;20036;-67
2022/01/06 08:41:35;;;;;;;27.65;8.90;;;3.10;99.90;;;;;;5095135;28;20512;-67
2022/01/06 08:44:00;;;;;;;27.98;10.75;;;3.10;99.90;;;;;;5095745;28;20120;-67
2022/01/06 08:46:26;;;;;;;34.72;9.50;;;3.30;99.90;;;;;;5093706;28;20119;-67
2022/01/06 08:48:51;;;;;;;36.20;10.18;;;3.40;99.90;;;;;;5098427;28;20368;-68
2022/01/06 08:51:18;;;;;;;25.30;9.02;;;3.50;99.90;;;;;;5090995;28;20024;-66
2022/01/06 08:53:44;;;;;;;28.15;7.78;;;3.70;99.90;;;;;;5096613;28;20107;-67
2022/01/06 08:56:09;;;;;;;26.90;6.75;;;4.20;99.90;;;;;;5093841;28;20128;-67
2022/01/06 08:58:35;;;;;;;22.33;6.88;;;4.50;99.90;;;;;;5095339;28;20384;-67
2022/01/06 09:01:00;;;;;;;21.02;6.22;;;4.90;99.90;;;;;;5115054;28;20038;-67
2022/01/06 09:03:26;;;;;;;21.25;6.70;;;5.10;99.90;;;;;;5093314;28;20035;-67
2022/01/06 09:05:51;;;;;;;23.75;6.68;;;5.20;99.90;;;;;;5074442;28;20035;-67
2022/01/06 09:08:17;;;;;;;25.90;9.32;;;5.30;99.90;;;;;;5094274;28;20059;-66
2022/01/06 09:10:42;;;;;;;59.88;29.52;;;5.30;99.90;;;;;;5093870;28;20465;-67
2022/01/06 09:13:08;;;;;;;61.67;27.15;;;5.40;99.90;;;;;;5094341;28;20098;-67
2022/01/06 09:15:34;;;;;;;57.85;26.00;;;5.40;99.90;;;;;;5095649;28;20102;-67
2022/01/06 09:17:59;;;;;;;77.00;37.78;;;5.40;99.90;;;;;;5094159;28;20032;-68
2022/01/06 09:20:25;;;;;;;40.55;20.27;;;5.70;99.90;;;;;;5092405;28;20024;-67
2022/01/06 09:22:50;;;;;;;31.63;15.25;;;6.10;99.90;;;;;;5097574;28;20028;-67
2022/01/06 09:25:16;;;;;;;26.45;6.93;;;6.30;99.90;;;;;;5096755;28;20420;-68
2022/01/06 09:27:43;;;;;;;20.20;6.28;;;6.10;99.90;;;;;;5091200;28;20481;-67
2022/01/06 09:30:10;;;;;;;24.98;7.03;;;6.20;99.90;;;;;;5094007;28;20042;-67
2022/01/06 09:32:36;;;;;;;23.33;7.38;;;6.20;99.90;;;;;;5094029;28;20481;-67
2022/01/06 09:35:01;;;;;;;26.08;6.78;;;5.80;99.90;;;;;;5093143;28;20020;-66
2022/01/06 09:37:27;;;;;;;20.80;5.95;;;5.70;99.90;;;;;;5092883;28;20056;-66
2022/01/06 09:39:53;;;;;;;23.90;6.18;;;6.30;99.90;;;;;;5093244;28;20459;-67
2022/01/06 09:42:19;;;;;;;27.38;6.40;;;6.10;99.90;;;;;;5098793;28;20031;-67
2022/01/06 09:44:48;;;;;;;21.08;5.63;;;6.20;99.90;;;;;;5077903;28;20044;-68
2022/01/06 09:47:14;;;;;;;20.88;5.82;;;6.50;99.90;;;;;;5096341;28;20024;-67
2022/01/06 09:49:42;;;;;;;27.38;6.03;;;6.90;99.90;;;;;;5100600;28;20504;-67
2022/01/06 09:52:08;;;;;;;20.73;5.53;;;7.40;99.90;;;;;;5093786;28;20148;-67
2022/01/06 09:54:35;;;;;;;19.60;4.88;;;7.60;99.90;;;;;;5092346;28;20044;-67
2022/01/06 09:57:01;;;;;;;22.77;6.53;;;7.20;99.90;;;;;;5093881;28;20114;-67
2022/01/06 09:59:26;;;;;;;23.40;6.28;;;6.70;99.90;;;;;;5075075;28;20099;-67
2022/01/06 10:01:52;;;;;;;26.00;6.38;;;6.40;99.90;;;;;;5092811;28;20085;-67
2022/01/06 10:04:21;;;;;;;23.80;5.72;;;6.50;99.90;;;;;;5092682;28;20449;-67
2022/01/06 10:06:58;;;;;;;24.58;5.63;;;6.60;99.90;;;;;;5093527;28;20024;-67
2022/01/06 10:09:24;;;;;;;29.50;5.85;;;7.00;99.90;;;;;;5092894;28;20359;-67
2022/01/06 10:11:54;;;;;;;19.38;5.03;;;7.00;99.90;;;;;;5074473;28;20024;-67
2022/01/06 10:14:29;;;;;;;26.40;5.60;;;6.80;99.90;;;;;;5092512;28;20072;-67
2022/01/06 10:16:57;;;;;;;22.50;5.88;;;7.10;99.90;;;;;;5077614;28;20050;-65
2022/01/06 10:19:24;;;;;;;25.92;6.00;;;6.70;99.90;;;;;;5094370;28;20378;-67
2022/01/06 10:21:57;;;;;;;26.45;6.72;;;6.60;99.90;;;;;;5093728;28;20028;-67
2022/01/06 10:24:25;;;;;;;19.73;5.72;;;6.70;99.90;;;;;;5091795;28;20027;-67
2022/01/06 10:27:01;;;;;;;20.98;6.53;;;7.10;99.90;;;;;;5072169;28;20069;-66
2022/01/06 10:29:33;;;;;;;22.38;6.30;;;6.80;99.90;;;;;;5075982;28;20024;-67
2022/01/06 10:32:05;;;;;;;25.65;6.18;;;7.30;99.90;;;;;;5092726;28;20165;-67
2022/01/06 10:34:32;;;;;;;24.13;7.18;;;7.30;99.90;;;;;;5075479;28;20422;-67
2022/01/06 10:36:58;;;;;;;20.58;6.38;;;7.30;99.90;;;;;;5091837;28;20024;-67
2022/01/06 10:39:24;;;;;;;26.05;6.13;;;7.60;99.90;;;;;;5058733;28;20028;-67
2022/01/06 10:41:51;;;;;;;19.17;5.60;;;7.70;99.90;;;;;;5090255;28;20149;-67
2022/01/06 10:44:17;;;;;;;25.35;6.13;;;7.70;99.90;;;;;;5090217;28;20553;-67
2022/01/06 10:46:44;;;;;;;22.77;5.10;;;7.50;99.90;;;;;;5091581;28;20047;-67
2022/01/06 10:49:16;;;;;;;20.00;5.78;;;7.60;99.90;;;;;;5088755;28;20524;-67
2022/01/06 10:51:47;;;;;;;24.90;5.97;;;8.10;99.90;;;;;;5093187;28;20110;-67
2022/01/06 10:54:20;;;;;;;17.98;6.13;;;7.80;99.90;;;;;;5068237;28;20385;-67
2022/01/06 10:57:07;;;;;;;23.70;5.55;;;8.00;99.90;;;;;;5079142;28;20073;-66
2022/01/06 10:59:34;;;;;;;26.75;5.72;;;8.00;99.90;;;;;;5072041;28;20478;-67
2022/01/06 11:02:01;;;;;;;26.58;6.40;;;8.00;99.90;;;;;;5080495;28;20051;-67
2022/01/06 11:04:28;;;;;;;20.92;5.45;;;7.80;99.90;;;;;;5097862;28;20035;-67
2022/01/06 11:06:54;;;;;;;19.60;5.50;;;8.00;99.90;;;;;;5096470;28;20496;-67
2022/01/06 11:09:20;;;;;;;22.40;6.30;;;8.00;99.90;;;;;;5097757;28;20024;-67
2022/01/06 11:14:28;;;;;;;21.57;5.53;;;8.20;99.90;;;;;;5097600;28;20035;-67
2022/01/06 11:16:54;;;;;;;19.17;4.55;;;8.20;99.90;;;;;;5097266;28;20103;-67
2022/01/06 11:19:22;;;;;;;19.58;4.93;;;8.20;99.90;;;;;;5096881;28;20032;-66
2022/01/06 11:21:49;;;;;;;22.73;4.95;;;8.30;99.90;;;;;;5097135;28;20050;-67
2022/01/06 11:24:20;;;;;;;18.15;4.72;;;8.20;99.90;;;;;;5076824;28;20020;-67
2022/01/06 11:27:06;;;;;;;18.13;5.13;;;7.60;99.90;;;;;;5096511;28;20055;-67
2022/01/06 11:29:36;;;;;;;20.17;5.45;;;7.80;99.90;;;;;;5079760;28;20044;-67
2022/01/06 11:32:04;;;;;;;19.73;5.28;;;7.70;99.90;;;;;;5084746;28;20095;-67
2022/01/06 11:34:37;;;;;;;23.92;5.00;;;7.60;99.90;;;;;;5075151;28;20161;-67
2022/01/06 11:37:14;;;;;;;32.20;6.15;;;7.50;99.90;;;;;;5080033;28;20024;-67
2022/01/06 11:39:40;;;;;;;21.60;5.50;;;7.30;99.90;;;;;;5081214;28;20043;-67
2022/01/06 11:42:23;;;;;;;28.50;5.78;;;7.20;99.90;;;;;;5081486;28;20045;-67
2022/01/06 11:44:53;;;;;;;26.95;6.07;;;7.00;99.90;;;;;;5091923;28;20047;-67
2022/01/06 11:47:37;;;;;;;29.33;6.60;;;6.90;99.90;;;;;;5095382;28;20031;-67
2022/01/06 11:50:11;;;;;;;29.83;6.80;;;6.80;99.90;;;;;;5091239;28;20477;-68
2022/01/06 11:52:48;;;;;;;26.25;6.05;;;6.80;99.90;;;;;;5091849;28;20027;-67
2022/01/06 11:55:14;;;;;;;24.48;6.07;;;7.00;99.90;;;;;;5096415;28;20020;-66
2022/01/06 11:57:40;;;;;;;31.33;7.22;;;6.90;99.90;;;;;;5100116;28;20027;-67
2022/01/06 12:00:23;;;;;;;24.83;7.18;;;7.00;99.90;;;;;;5100403;28;20145;-67
2022/01/06 12:03:10;;;;;;;27.45;8.05;;;6.90;99.90;;;;;;5099541;28;20019;-67
2022/01/06 12:05:52;;;;;;;27.10;7.72;;;7.00;99.90;;;;;;5079405;28;20039;-66
2022/01/06 12:08:22;;;;;;;33.22;7.95;;;6.80;99.90;;;;;;5097355;28;20034;-67
2022/01/06 12:10:50;;;;;;;29.10;8.73;;;6.70;99.90;;;;;;5096124;28;20081;-66
2022/01/06 12:13:17;;;;;;;25.83;8.20;;;6.80;99.90;;;;;;5097076;28;20023;-66
2022/01/06 12:15:49;;;;;;;27.92;7.00;;;7.00;99.90;;;;;;5095722;28;20075;-66
2022/01/06 12:18:24;;;;;;;30.55;8.35;;;6.80;99.90;;;;;;5079058;28;20028;-67
2022/01/06 12:20:51;;;;;;;24.52;7.00;;;7.00;99.90;;;;;;5076077;28;20516;-67
2022/01/06 12:23:18;;;;;;;25.13;7.25;;;7.10;99.90;;;;;;5098776;28;20051;-66
2022/01/06 12:26:07;;;;;;;35.90;8.52;;;7.10;99.90;;;;;;5076264;28;20039;-67
2022/01/06 12:28:33;;;;;;;27.63;8.25;;;7.10;99.90;;;;;;5097810;28;20073;-67
2022/01/06 12:31:02;;;;;;;34.47;8.25;;;6.90;99.90;;;;;;5062480;28;20032;-67
2022/01/06 12:33:43;;;;;;;26.27;8.95;;;6.70;99.90;;;;;;5101729;28;20024;-66
2022/01/06 12:36:09;;;;;;;29.45;9.75;;;6.90;99.90;;;;;;5093775;28;20061;-67
2022/01/06 12:38:37;;;;;;;35.10;9.68;;;6.90;99.90;;;;;;5098561;28;20085;-66
2022/01/06 12:41:03;;;;;;;34.33;10.00;;;6.80;99.90;;;;;;5081095;28;20031;-66
2022/01/06 12:43:31;;;;;;;31.52;9.00;;;6.80;99.90;;;;;;5074074;28;20028;-66
2022/01/06 12:46:17;;;;;;;31.83;8.55;;;6.70;99.90;;;;;;5074213;28;20486;-66
2022/01/06 12:48:48;;;;;;;30.63;8.13;;;6.60;99.90;;;;;;5095130;28;20485;-65
2022/01/06 12:51:20;;;;;;;32.17;8.20;;;6.70;99.90;;;;;;5105738;28;20023;-65
2022/01/06 12:53:49;;;;;;;32.38;9.25;;;6.70;99.90;;;;;;5070334;28;20461;-66